»·PEaware :: N123KT KSAN-KSNA

N123KT :: KSAN-KSNA

FLIGHT INFORMATION

Flight Status: Arrived
Operator: Privately registered:
United States
More flights under this callsign
Pilot: Anonymous 475 (475)
Aircraft: CESSNA 172 SKYHAWK
(C172)
More flights by this aircraft type
Origin: KSAN San Diego Intl-Lindbergh
United States
Destination: KSNA John Wayne-Orange Co
United States
More flights between these airports :: More routes between these airports
Route: +OCN V23 SLI
File this flight plan on PilotEdge
Remarks: TEC route SANP3
Altitude:
(Current/Filed)
6,000ft
Speed:
(Current/Filed)
120kts
Departed: 02-Dec-19 01:16 PM
Arrived: 02-Dec-19 01:56 PM
Distance/Time
Traveled:
66nm/0:40
Distance/Time
To Go:
Arrived

Flight Plot

Page will automatically refresh every two minutes.


Map Options




Map Legend


Flown Route
Filed Route
Departure Airport
Arrival Airport
Navaid (VOR, NDB)
Fix

Horizontal Profiles

Position Reports

Time Latitude Longitude Heading Altitude Ground
Speed
02-Dec-19 13:03 32.735286 -117.189252 188 18ft 0kts
02-Dec-19 13:04 32.735286 -117.189252 188 18ft 0kts
02-Dec-19 13:05 32.735286 -117.189252 188 18ft 0kts
02-Dec-19 13:06 32.735286 -117.189252 188 18ft 0kts
02-Dec-19 13:07 32.735286 -117.189252 188 18ft 0kts
02-Dec-19 13:08 32.735286 -117.189252 188 18ft 0kts
02-Dec-19 13:09 32.735286 -117.189252 188 18ft 0kts
02-Dec-19 13:10 32.734607 -117.189071 113 17ft 8kts
02-Dec-19 13:11 32.733664 -117.185414 104 17ft 13kts
02-Dec-19 13:12 32.732526 -117.180804 103 17ft 15kts
02-Dec-19 13:13 32.731283 -117.176334 110 23ft 11kts
02-Dec-19 13:14 32.730809 -117.175375 142 23ft 2kts
02-Dec-19 13:15 32.732959 -117.187498 285 175ft 88kts
02-Dec-19 13:16 32.744764 -117.212712 321 1027ft 92kts
02-Dec-19 13:17 32.764785 -117.230236 321 1914ft 87kts
02-Dec-19 13:18 32.783299 -117.246890 320 2796ft 79kts
02-Dec-19 13:19 32.800092 -117.262252 321 3579ft 72kts
02-Dec-19 13:20 32.818943 -117.273401 343 4209ft 83kts
02-Dec-19 13:21 32.842452 -117.281100 342 4824ft 91kts
02-Dec-19 13:22 32.866733 -117.289355 341 5487ft 88kts
02-Dec-19 13:23 32.889735 -117.297218 342 6012ft 98kts
02-Dec-19 13:24 32.920908 -117.307797 343 6000ft 124kts
02-Dec-19 13:25 32.954351 -117.319257 342 6000ft 125kts
02-Dec-19 13:26 32.987835 -117.330713 342 6002ft 125kts
02-Dec-19 13:27 33.021253 -117.342226 343 6000ft 125kts
02-Dec-19 13:28 33.054644 -117.353705 343 5999ft 125kts
02-Dec-19 13:29 33.088160 -117.365196 343 6001ft 125kts
02-Dec-19 13:30 33.116402 -117.374935 342 5999ft 125kts
02-Dec-19 13:31 33.149778 -117.386477 343 5998ft 125kts
02-Dec-19 13:32 33.183169 -117.397944 343 5999ft 125kts
02-Dec-19 13:33 33.216611 -117.409481 343 5998ft 125kts
02-Dec-19 13:34 33.247611 -117.425986 313 5999ft 123kts
02-Dec-19 13:35 33.272167 -117.454574 313 6000ft 123kts
02-Dec-19 13:36 33.296724 -117.483146 313 5999ft 123kts
02-Dec-19 13:37 33.321306 -117.511820 313 5998ft 123kts
02-Dec-19 13:38 33.345853 -117.540502 313 5999ft 123kts
02-Dec-19 13:39 33.370643 -117.569394 313 6001ft 124kts
02-Dec-19 13:40 33.395379 -117.598340 313 5999ft 124kts
02-Dec-19 13:41 33.420102 -117.627213 313 6000ft 124kts
02-Dec-19 13:42 33.444916 -117.656208 312 5999ft 124kts
02-Dec-19 13:43 33.469736 -117.685264 312 6000ft 124kts
02-Dec-19 13:45 33.496489 -117.713147 321 5328ft 123kts
02-Dec-19 13:46 33.522937 -117.736934 321 4321ft 116kts
02-Dec-19 13:47 33.547899 -117.760024 321 4002ft 117kts
02-Dec-19 13:48 33.574139 -117.784362 321 4000ft 119kts
02-Dec-19 13:49 33.600433 -117.808825 321 3319ft 115kts
02-Dec-19 13:50 33.621417 -117.828554 322 3160ft 77kts
02-Dec-19 13:51 33.641432 -117.847373 321 2228ft 98kts
02-Dec-19 13:52 33.666620 -117.847451 26 1229ft 108kts
02-Dec-19 13:53 33.690902 -117.831583 11 825ft 82kts
02-Dec-19 13:54 33.696811 -117.849188 266 721ft 60kts
02-Dec-19 13:55 33.686597 -117.861799 207 235ft 55kts
02-Dec-19 13:56 33.677884 -117.867853 281 60ft 12kts
02-Dec-19 13:57 33.676167 -117.869995 208 60ft 13kts
02-Dec-19 13:58 33.676287 -117.870983 210 60ft 0kts
02-Dec-19 13:59 33.676283 -117.870986 216 60ft 0kts

Navigation Log

Ident Type
Flight plan parsing failed, navigation log unavailable